Back to Top

Language: 

My Weather Underground Personal Weather Station Historical Data with Graphs...

Delerius Weather Station Historical Data
Daily Summary for May 4, 2017 Units:  Metric    English   Both
« Previous Day
Next Day »
Daily Weekly Monthly Yearly Custom
  High: Low: Average:
Temperature: 15.2 °C 6.4 °C 10.7 °C
Dew Point: 6.5 °C 1.2 °C 4.6 °C
Humidity: 88 % 39 % 68 %
Wind Speed: 22.5 km/h 1.6 km/h 11.9 km/h
Wind Gust: 46.7 km/h - -
Wind:- - ENE
Pressure: 1028.7 hPa 1026 hPa -
Precipitation: 0 mm    
Historical Graphs
 
 
Tabular Data for May 4, 2017
Time Temperature Dew Point Pressure Wind Wind Speed Wind Gust Humidity Rainfall Rate (Hourly) solar Conditions
00:04 8.4 °C 6 °C 1026.6 hPa NNE 9.7 km/h 20.9 km/h 85 % 0 mm 0 W/m2
00:09 8.4 °C 6 °C 1026.6 hPa NNE 9.7 km/h 20.9 km/h 85 % 0 mm 0 W/m2
00:14 8.4 °C 6 °C 1026.6 hPa NNE 9.7 km/h 17.7 km/h 85 % 0 mm 0 W/m2
00:19 8.4 °C 6.2 °C 1026.6 hPa NNE 9.7 km/h 20.9 km/h 86 % 0 mm 0 W/m2
00:24 8.4 °C 6.2 °C 1026.6 hPa NNE 11.3 km/h 24.1 km/h 86 % 0 mm 0 W/m2
00:29 8.4 °C 6.2 °C 1026.6 hPa NE 9.7 km/h 24.1 km/h 86 % 0 mm 0 W/m2
00:34 8.4 °C 6.2 °C 1026.6 hPa NNE 8 km/h 20.9 km/h 86 % 0 mm 0 W/m2
00:39 8.4 °C 6.2 °C 1026.6 hPa NE 9.7 km/h 20.9 km/h 86 % 0 mm 0 W/m2
00:44 8.4 °C 6 °C 1026.6 hPa NNE 8 km/h 19.3 km/h 85 % 0 mm 0 W/m2
00:49 8.5 °C 6.3 °C 1026.6 hPa NE 6.4 km/h 16.1 km/h 86 % 0 mm 0 W/m2
00:54 8.5 °C 6.3 °C 1026.6 hPa ENE 4.8 km/h 16.1 km/h 86 % 0 mm 0 W/m2
00:59 8.5 °C 6.3 °C 1026.6 hPa NE 8 km/h 19.3 km/h 86 % 0 mm 0 W/m2
01:04 8.5 °C 6.3 °C 1026.6 hPa NE 8 km/h 19.3 km/h 86 % 0 mm 0 W/m2
01:09 8.5 °C 6.1 °C 1026.3 hPa NE 4.8 km/h 14.5 km/h 85 % 0 mm 0 W/m2
01:14 8.5 °C 6.1 °C 1026.3 hPa NE 6.4 km/h 17.7 km/h 85 % 0 mm 0 W/m2
01:19 8.5 °C 6.1 °C 1026.3 hPa NNE 9.7 km/h 22.5 km/h 85 % 0 mm 0 W/m2
01:24 8.5 °C 6.1 °C 1026.3 hPa NNE 9.7 km/h 22.5 km/h 85 % 0 mm 0 W/m2
01:29 8.5 °C 6.1 °C 1026.3 hPa NNE 11.3 km/h 20.9 km/h 85 % 0 mm 0 W/m2
01:34 8.5 °C 6.3 °C 1026.3 hPa NNE 8 km/h 20.9 km/h 86 % 0 mm 0 W/m2
01:39 8.5 °C 6.3 °C 1026.3 hPa NNE 8 km/h 17.7 km/h 86 % 0 mm 0 W/m2
01:44 8.5 °C 6.3 °C 1026.3 hPa NNE 9.7 km/h 17.7 km/h 86 % 0 mm 0 W/m2
01:49 8.5 °C 6.3 °C 1026.3 hPa NE 8 km/h 20.9 km/h 86 % 0 mm 0 W/m2
01:54 8.5 °C 6.3 °C 1026.3 hPa NNE 6.4 km/h 20.9 km/h 86 % 0 mm 0 W/m2
01:59 8.5 °C 6.3 °C 1026.3 hPa NNE 4.8 km/h 19.3 km/h 86 % 0 mm 0 W/m2
02:04 8.5 °C 6.3 °C 1026.3 hPa NNE 4.8 km/h 16.1 km/h 86 % 0 mm 0 W/m2
02:09 8.5 °C 6.3 °C 1026.3 hPa NNE 8 km/h 17.7 km/h 86 % 0 mm 0 W/m2
02:14 8.5 °C 6.3 °C 1026.3 hPa NNE 8 km/h 17.7 km/h 86 % 0 mm 0 W/m2
02:19 8.5 °C 6.3 °C 1026 hPa NNE 8 km/h 19.3 km/h 86 % 0 mm 0 W/m2
02:24 8.5 °C 6.3 °C 1026.3 hPa NNE 8 km/h 19.3 km/h 86 % 0 mm 0 W/m2
02:29 8.5 °C 6.3 °C 1026 hPa NNE 9.7 km/h 19.3 km/h 86 % 0 mm 0 W/m2
02:34 8.5 °C 6.3 °C 1026 hPa NNE 8 km/h 19.3 km/h 86 % 0 mm 0 W/m2
02:39 8.6 °C 6.4 °C 1026 hPa NNE 8 km/h 22.5 km/h 86 % 0 mm 0 W/m2
02:44 8.6 °C 6.4 °C 1026 hPa NNE 9.7 km/h 22.5 km/h 86 % 0 mm 0 W/m2
02:50 8.6 °C 6.4 °C 1026 hPa NNE 8 km/h 19.3 km/h 86 % 0 mm 0 W/m2
02:55 8.6 °C 6.4 °C 1026 hPa NNE 9.7 km/h 22.5 km/h 86 % 0 mm 0 W/m2
03:00 8.6 °C 6.4 °C 1026 hPa NNE 9.7 km/h 22.5 km/h 86 % 0 mm 0 W/m2
03:05 8.6 °C 6.4 °C 1026 hPa NNE 9.7 km/h 19.3 km/h 86 % 0 mm 0 W/m2
03:10 8.6 °C 6.4 °C 1026 hPa NNE 6.4 km/h 19.3 km/h 86 % 0 mm 0 W/m2
03:15 8.6 °C 6.4 °C 1026 hPa NNE 6.4 km/h 14.5 km/h 86 % 0 mm 0 W/m2
03:20 8.7 °C 6.5 °C 1026 hPa NNE 8 km/h 17.7 km/h 86 % 0 mm 0 W/m2
03:25 8.7 °C 6.5 °C 1026 hPa NNE 9.7 km/h 17.7 km/h 86 % 0 mm 0 W/m2
03:30 8.7 °C 6.5 °C 1026 hPa NNE 9.7 km/h 17.7 km/h 86 % 0 mm 0 W/m2
03:35 8.7 °C 6.5 °C 1026 hPa NNE 9.7 km/h 17.7 km/h 86 % 0 mm 0 W/m2
03:40 8.6 °C 6.4 °C 1026 hPa NNE 11.3 km/h 17.7 km/h 86 % 0 mm 0 W/m2
03:45 8.6 °C 6.4 °C 1026 hPa NNE 11.3 km/h 19.3 km/h 86 % 0 mm 0 W/m2
03:50 8.6 °C 6.4 °C 1026 hPa NNE 9.7 km/h 20.9 km/h 86 % 0 mm 0 W/m2
03:55 8.6 °C 6.4 °C 1026 hPa NNE 11.3 km/h 24.1 km/h 86 % 0 mm 0 W/m2
04:00 8.6 °C 6.4 °C 1026 hPa NNE 12.9 km/h 25.7 km/h 86 % 0 mm 0 W/m2
04:06 8.5 °C 6.3 °C 1026 hPa NNE 14.5 km/h 25.7 km/h 86 % 0 mm 0 W/m2
04:11 8.4 °C 6.2 °C 1026 hPa NNE 12.9 km/h 24.1 km/h 86 % 0 mm 0 W/m2
04:16 8.3 °C 6.1 °C 1026 hPa NNE 11.3 km/h 24.1 km/h 86 % 0 mm 0 W/m2
04:21 8.2 °C 6 °C 1026 hPa NNE 11.3 km/h 22.5 km/h 86 % 0 mm 0 W/m2
04:26 8.1 °C 6.1 °C 1026 hPa NNE 9.7 km/h 22.5 km/h 87 % 0 mm 0 W/m2
04:31 8 °C 5.9 °C 1026 hPa NNE 9.7 km/h 22.5 km/h 87 % 0 mm 0 W/m2
04:36 8 °C 5.9 °C 1026 hPa NNE 9.7 km/h 22.5 km/h 87 % 0 mm 0 W/m2
04:41 7.9 °C 5.9 °C 1026 hPa NNE 9.7 km/h 22.5 km/h 87 % 0 mm 0 W/m2
04:46 7.9 °C 5.9 °C 1026.3 hPa NNE 8 km/h 17.7 km/h 87 % 0 mm 0 W/m2
04:51 7.9 °C 6.1 °C 1026.3 hPa NNE 9.7 km/h 20.9 km/h 88 % 0 mm 0 W/m2
04:56 7.9 °C 6.1 °C 1026.3 hPa NNE 9.7 km/h 20.9 km/h 88 % 0 mm 0 W/m2
05:01 7.8 °C 5.9 °C 1026.3 hPa North 9.7 km/h 19.3 km/h 88 % 0 mm 0 W/m2
05:06 7.8 °C 5.9 °C 1026.3 hPa North 9.7 km/h 19.3 km/h 88 % 0 mm 0 W/m2
05:11 7.8 °C 5.9 °C 1026.3 hPa North 8 km/h 16.1 km/h 88 % 0 mm 0 W/m2
05:16 7.8 °C 5.9 °C 1026.3 hPa NNE 8 km/h 16.1 km/h 88 % 0 mm 0 W/m2
05:21 7.8 °C 5.9 °C 1026.3 hPa NNE 9.7 km/h 17.7 km/h 88 % 0 mm 0 W/m2
05:26 7.8 °C 5.9 °C 1026.3 hPa NNE 9.7 km/h 17.7 km/h 88 % 0 mm 5 W/m2
05:31 7.8 °C 5.9 °C 1026.3 hPa NNE 8 km/h 17.7 km/h 88 % 0 mm 9 W/m2
05:36 7.8 °C 5.9 °C 1026.3 hPa NNE 8 km/h 17.7 km/h 88 % 0 mm 11 W/m2
05:41 7.8 °C 5.9 °C 1026.3 hPa NNE 8 km/h 17.7 km/h 88 % 0 mm 12 W/m2
05:46 7.8 °C 5.9 °C 1026.3 hPa NNE 8 km/h 16.1 km/h 88 % 0 mm 16 W/m2
05:51 7.8 °C 5.9 °C 1026 hPa NNE 6.4 km/h 14.5 km/h 88 % 0 mm 19 W/m2
05:56 7.9 °C 6.1 °C 1026 hPa NNE 6.4 km/h 11.3 km/h 88 % 0 mm 25 W/m2
06:01 7.9 °C 6.1 °C 1026 hPa NNE 6.4 km/h 12.9 km/h 88 % 0 mm 30 W/m2
06:06 7.9 °C 5.9 °C 1026 hPa NNE 6.4 km/h 12.9 km/h 87 % 0 mm 37 W/m2
06:11 8.1 °C 6.1 °C 1026 hPa NNE 4.8 km/h 12.9 km/h 87 % 0 mm 44 W/m2
06:16 8.1 °C 5.9 °C 1026 hPa NNE 3.2 km/h 11.3 km/h 86 % 0 mm 51 W/m2
06:21 8.2 °C 6 °C 1026 hPa NNE 1.6 km/h 11.3 km/h 86 % 0 mm 58 W/m2
06:26 8.3 °C 5.9 °C 1026 hPa NNE 4.8 km/h 14.5 km/h 85 % 0 mm 54 W/m2
06:31 8.4 °C 6 °C 1026 hPa NE 4.8 km/h 14.5 km/h 85 % 0 mm 54 W/m2
06:36 8.4 °C 5.8 °C 1026 hPa NE 3.2 km/h 9.7 km/h 84 % 0 mm 54 W/m2
06:42 8.5 °C 5.9 °C 1026 hPa NE 3.2 km/h 9.7 km/h 84 % 0 mm 60 W/m2
06:47 8.6 °C 5.9 °C 1026 hPa NE 1.6 km/h 11.3 km/h 83 % 0 mm 65 W/m2
06:52 8.7 °C 5.8 °C 1026 hPa NE 3.2 km/h 14.5 km/h 82 % 0 mm 72 W/m2
06:57 8.7 °C 5.6 °C 1026 hPa NE 6.4 km/h 14.5 km/h 81 % 0 mm 77 W/m2
07:02 8.8 °C 5.7 °C 1026 hPa NE 6.4 km/h 16.1 km/h 81 % 0 mm 84 W/m2
07:07 8.8 °C 5.6 °C 1026 hPa NE 6.4 km/h 16.1 km/h 80 % 0 mm 84 W/m2
07:13 8.9 °C 5.4 °C 1026 hPa NE 6.4 km/h 16.1 km/h 79 % 0 mm 88 W/m2
07:18 9 °C 5.6 °C 1026 hPa NE 9.7 km/h 19.3 km/h 79 % 0 mm 97 W/m2
07:23 9.1 °C 5.4 °C 1026 hPa NE 9.7 km/h 19.3 km/h 78 % 0 mm 97 W/m2
07:28 9.2 °C 5.6 °C 1026 hPa ENE 8 km/h 17.7 km/h 78 % 0 mm 98 W/m2
07:33 9.2 °C 5.4 °C 1026 hPa ENE 6.4 km/h 16.1 km/h 77 % 0 mm 97 W/m2
07:38 9.3 °C 5.3 °C 1026 hPa ENE 6.4 km/h 16.1 km/h 76 % 0 mm 109 W/m2
07:43 9.4 °C 5.2 °C 1026 hPa NE 8 km/h 17.7 km/h 75 % 0 mm 120 W/m2
07:48 9.6 °C 5.4 °C 1026 hPa NE 8 km/h 17.7 km/h 75 % 0 mm 125 W/m2
07:53 9.7 °C 5.3 °C 1026.3 hPa NE 8 km/h 17.7 km/h 74 % 0 mm 123 W/m2
07:58 9.8 °C 5.2 °C 1026.3 hPa ENE 9.7 km/h 29 km/h 73 % 0 mm 128 W/m2
08:03 9.9 °C 5.1 °C 1026.3 hPa ENE 11.3 km/h 29 km/h 72 % 0 mm 134 W/m2
08:08 10 °C 5 °C 1026.3 hPa ENE 12.9 km/h 24.1 km/h 71 % 0 mm 148 W/m2
08:13 10.1 °C 4.9 °C 1026.3 hPa ENE 11.3 km/h 22.5 km/h 70 % 0 mm 156 W/m2
08:18 10.2 °C 4.8 °C 1026.3 hPa ENE 11.3 km/h 22.5 km/h 69 % 0 mm 156 W/m2
08:23 10.3 °C 4.7 °C 1026.3 hPa ENE 9.7 km/h 20.9 km/h 68 % 0 mm 151 W/m2
08:28 10.4 °C 4.7 °C 1026.3 hPa ENE 9.7 km/h 24.1 km/h 68 % 0 mm 186 W/m2
08:33 10.6 °C 4.9 °C 1026.3 hPa ENE 11.3 km/h 24.1 km/h 68 % 0 mm 185 W/m2
08:38 10.6 °C 4.7 °C 1026.3 hPa ENE 12.9 km/h 24.1 km/h 67 % 0 mm 195 W/m2
08:43 10.7 °C 4.8 °C 1026.3 hPa ENE 14.5 km/h 25.7 km/h 67 % 0 mm 216 W/m2
08:48 10.8 °C 4.9 °C 1026.3 hPa ENE 12.9 km/h 25.7 km/h 67 % 0 mm 230 W/m2
08:53 10.9 °C 5.2 °C 1026.3 hPa ENE 11.3 km/h 22.5 km/h 68 % 0 mm 214 W/m2
08:58 11 °C 4.9 °C 1026.3 hPa ENE 9.7 km/h 19.3 km/h 66 % 0 mm 221 W/m2
09:03 11.1 °C 4.8 °C 1026.3 hPa ENE 11.3 km/h 30.6 km/h 65 % 0 mm 209 W/m2
09:08 11.1 °C 4.8 °C 1026.3 hPa ENE 12.9 km/h 30.6 km/h 65 % 0 mm 209 W/m2
09:13 11.2 °C 4.8 °C 1026.3 hPa ENE 12.9 km/h 24.1 km/h 65 % 0 mm 209 W/m2
09:18 11.2 °C 4.6 °C 1026.3 hPa ENE 12.9 km/h 24.1 km/h 64 % 0 mm 200 W/m2
09:23 11.3 °C 4.7 °C 1026.3 hPa ENE 12.9 km/h 22.5 km/h 64 % 0 mm 204 W/m2
09:28 11.3 °C 4.5 °C 1026.3 hPa ENE 12.9 km/h 22.5 km/h 63 % 0 mm 281 W/m2
09:33 11.4 °C 4.4 °C 1026.3 hPa ENE 11.3 km/h 24.1 km/h 62 % 0 mm 362 W/m2
09:38 11.6 °C 4.3 °C 1026.3 hPa ENE 12.9 km/h 24.1 km/h 61 % 0 mm 396 W/m2
09:43 11.9 °C 4.6 °C 1026.3 hPa ENE 12.9 km/h 24.1 km/h 61 % 0 mm 517 W/m2
09:48 12.2 °C 4.4 °C 1026.3 hPa ENE 12.9 km/h 25.7 km/h 59 % 0 mm 425 W/m2
09:53 12.4 °C 4.1 °C 1026.3 hPa ENE 16.1 km/h 37 km/h 57 % 0 mm 401 W/m2
09:58 12.7 °C 3.9 °C 1026.3 hPa ENE 19.3 km/h 37 km/h 55 % 0 mm 731 W/m2
10:03 13 °C 3.9 °C 1026.3 hPa ENE 19.3 km/h 35.4 km/h 54 % 0 mm 712 W/m2
10:09 13.4 °C 3.7 °C 1026.3 hPa ENE 19.3 km/h 37 km/h 52 % 0 mm 714 W/m2
10:14 13.5 °C 3.6 °C 1026.3 hPa ENE 19.3 km/h 41.8 km/h 51 % 0 mm 745 W/m2
10:19 13.6 °C 3.7 °C 1026.3 hPa ENE 17.7 km/h 41.8 km/h 51 % 0 mm 738 W/m2
10:24 13.8 °C 3.6 °C 1026.3 hPa East 16.1 km/h 33.8 km/h 50 % 0 mm 737 W/m2
10:29 14 °C 4 °C 1026 hPa ENE 16.1 km/h 38.6 km/h 51 % 0 mm 751 W/m2
10:34 14 °C 3.2 °C 1026.3 hPa ENE 17.7 km/h 38.6 km/h 48 % 0 mm 756 W/m2
10:39 14.1 °C 3.2 °C 1026.3 hPa ENE 16.1 km/h 33.8 km/h 48 % 0 mm 619 W/m2
10:44 14.1 °C 3.6 °C 1026.3 hPa ENE 12.9 km/h 25.7 km/h 49 % 0 mm 510 W/m2
10:49 14 °C 3.2 °C 1026.3 hPa ENE 14.5 km/h 43.5 km/h 48 % 0 mm 527 W/m2
10:54 13.7 °C 3.4 °C 1026.3 hPa ENE 19.3 km/h 43.5 km/h 50 % 0 mm 860 W/m2
10:59 14.1 °C 3.8 °C 1026 hPa ENE 17.7 km/h 35.4 km/h 50 % 0 mm 780 W/m2
11:04 14.6 °C 4 °C 1026.3 hPa East 14.5 km/h 35.4 km/h 49 % 0 mm 770 W/m2
11:09 14.6 °C 3.7 °C 1026 hPa ENE 16.1 km/h 32.2 km/h 48 % 0 mm 777 W/m2
11:14 14.7 °C 3.5 °C 1026.3 hPa East 17.7 km/h 33.8 km/h 47 % 0 mm 788 W/m2
11:19 14.8 °C 3.3 °C 1026 hPa East 17.7 km/h 33.8 km/h 46 % 0 mm 791 W/m2
11:24 14.9 °C 3.4 °C 1026 hPa East 17.7 km/h 32.2 km/h 46 % 0 mm 803 W/m2
11:29 15.2 °C 3.7 °C 1026 hPa ENE 14.5 km/h 30.6 km/h 46 % 0 mm 812 W/m2
11:34 15.1 °C 2.9 °C 1026.3 hPa ENE 17.7 km/h 40.2 km/h 44 % 0 mm 809 W/m2
11:39 14.9 °C 3.1 °C 1026 hPa ENE 19.3 km/h 40.2 km/h 45 % 0 mm 844 W/m2
11:44 14.9 °C 3.4 °C 1026 hPa East 17.7 km/h 38.6 km/h 46 % 0 mm 849 W/m2
11:49 15 °C 3.2 °C 1026.3 hPa ENE 17.7 km/h 30.6 km/h 45 % 0 mm 842 W/m2
11:54 15 °C 3.4 °C 1026.3 hPa ENE 16.1 km/h 37 km/h 46 % 0 mm 860 W/m2
11:59 15.1 °C 2.6 °C 1026 hPa ENE 19.3 km/h 46.7 km/h 43 % 0 mm 868 W/m2
12:04 14.8 °C 2.7 °C 1026.3 hPa ENE 22.5 km/h 46.7 km/h 44 % 0 mm 844 W/m2
12:09 15 °C 3.2 °C 1026.3 hPa ENE 19.3 km/h 40.2 km/h 45 % 0 mm 846 W/m2
12:14 14.9 °C 2.7 °C 1026.3 hPa ENE 19.3 km/h 43.5 km/h 44 % 0 mm 851 W/m2
12:19 14.9 °C 2.4 °C 1026.3 hPa ENE 20.9 km/h 43.5 km/h 43 % 0 mm 858 W/m2
12:24 15 °C 2.2 °C 1026.3 hPa ENE 20.9 km/h 38.6 km/h 42 % 0 mm 837 W/m2
12:29 14.9 °C 2.4 °C 1026.3 hPa ENE 20.9 km/h 38.6 km/h 43 % 0 mm 849 W/m2
12:34 14.9 °C 1.8 °C 1026.3 hPa ENE 20.9 km/h 41.8 km/h 41 % 0 mm 870 W/m2
12:39 14.9 °C 1.4 °C 1026.3 hPa ENE 19.3 km/h 43.5 km/h 40 % 0 mm 868 W/m2
12:44 14.9 °C 2.1 °C 1026.3 hPa East 19.3 km/h 43.5 km/h 42 % 0 mm 877 W/m2
12:50 15 °C 1.5 °C 1026.3 hPa East 17.7 km/h 35.4 km/h 40 % 0 mm 884 W/m2
12:55 15.1 °C 1.2 °C 1026.3 hPa East 17.7 km/h 37 km/h 39 % 0 mm 882 W/m2
13:00 15.1 °C 1.6 °C 1026.3 hPa East 17.7 km/h 40.2 km/h 40 % 0 mm 847 W/m2
13:05 15 °C 1.8 °C 1026.3 hPa East 17.7 km/h 40.2 km/h 41 % 0 mm 840 W/m2
13:10 14.8 °C 1.3 °C 1026.3 hPa East 19.3 km/h 37 km/h 40 % 0 mm 860 W/m2
13:11 14.8 °C 1.7 °C 1026.3 hPa East 19.3 km/h 37 km/h 41 % 0 mm 863 W/m2
13:16 14.8 °C 1.7 °C 1026.3 hPa East 17.7 km/h 40.2 km/h 41 % 0 mm 870 W/m2
13:21 14.6 °C 1.5 °C 1026.3 hPa ENE 19.3 km/h 41.8 km/h 41 % 0 mm 872 W/m2
13:26 14.6 °C 2.4 °C 1026 hPa ENE 17.7 km/h 41.8 km/h 44 % 0 mm 868 W/m2
13:31 14.6 °C 1.8 °C 1026 hPa East 17.7 km/h 33.8 km/h 42 % 0 mm 865 W/m2
13:36 14.6 °C 2.4 °C 1026 hPa East 19.3 km/h 38.6 km/h 44 % 0 mm 853 W/m2
13:41 14.5 °C 2.1 °C 1026.3 hPa East 20.9 km/h 41.8 km/h 43 % 0 mm 858 W/m2
13:46 14.6 °C 2.2 °C 1026.3 hPa ENE 19.3 km/h 41.8 km/h 43 % 0 mm 861 W/m2
13:52 14.5 °C 2.4 °C 1026.3 hPa ENE 17.7 km/h 41.8 km/h 44 % 0 mm 853 W/m2
13:57 14.7 °C 2.6 °C 1026.3 hPa East 17.7 km/h 41.8 km/h 44 % 0 mm 849 W/m2
14:02 14.8 °C 2.7 °C 1026.3 hPa East 17.7 km/h 33.8 km/h 44 % 0 mm 847 W/m2
14:07 14.6 °C 2.4 °C 1026.3 hPa East 19.3 km/h 33.8 km/h 44 % 0 mm 840 W/m2
14:12 14.7 °C 2.6 °C 1026.3 hPa ENE 17.7 km/h 30.6 km/h 44 % 0 mm 830 W/m2
14:17 14.6 °C 2.8 °C 1026.3 hPa ENE 17.7 km/h 37 km/h 45 % 0 mm 833 W/m2
14:22 14.6 °C 2.2 °C 1026.3 hPa ENE 17.7 km/h 40.2 km/h 43 % 0 mm 830 W/m2
14:27 14.5 °C 2.7 °C 1026.3 hPa ENE 17.7 km/h 40.2 km/h 45 % 0 mm 823 W/m2
14:32 14.7 °C 2.9 °C 1026.3 hPa East 16.1 km/h 40.2 km/h 45 % 0 mm 824 W/m2
14:37 14.6 °C 2.2 °C 1026.3 hPa ENE 16.1 km/h 37 km/h 43 % 0 mm 795 W/m2
14:42 14.6 °C 2.2 °C 1026.3 hPa ENE 17.7 km/h 37 km/h 43 % 0 mm 800 W/m2
14:47 14.4 °C 2.3 °C 1026.3 hPa ENE 17.7 km/h 32.2 km/h 44 % 0 mm 800 W/m2
14:52 14.4 °C 2.3 °C 1026 hPa ENE 17.7 km/h 40.2 km/h 44 % 0 mm 786 W/m2
14:57 14.6 °C 2.4 °C 1026 hPa ENE 16.1 km/h 40.2 km/h 44 % 0 mm 780 W/m2
15:02 14.8 °C 2.3 °C 1026 hPa ENE 14.5 km/h 30.6 km/h 43 % 0 mm 770 W/m2
15:07 14.8 °C 2 °C 1026 hPa ENE 14.5 km/h 33.8 km/h 42 % 0 mm 761 W/m2
15:12 14.6 °C 2.2 °C 1026.3 hPa ENE 19.3 km/h 37 km/h 43 % 0 mm 759 W/m2
15:17 14.5 °C 2.4 °C 1026 hPa ENE 19.3 km/h 37 km/h 44 % 0 mm 747 W/m2
15:22 14.7 °C 3.2 °C 1026 hPa ENE 16.1 km/h 30.6 km/h 46 % 0 mm 731 W/m2
15:27 14.6 °C 3.1 °C 1026 hPa East 16.1 km/h 33.8 km/h 46 % 0 mm 731 W/m2
15:32 14.7 °C 3.8 °C 1026 hPa ENE 14.5 km/h 33.8 km/h 48 % 0 mm 717 W/m2
15:37 14.6 °C 3.7 °C 1026 hPa ENE 14.5 km/h 40.2 km/h 48 % 0 mm 708 W/m2
15:42 14.6 °C 4 °C 1026 hPa ENE 12.9 km/h 40.2 km/h 49 % 0 mm 705 W/m2
15:47 14.5 °C 3.9 °C 1026 hPa East 12.9 km/h 30.6 km/h 49 % 0 mm 373 W/m2
15:52 14.4 °C 3.2 °C 1026 hPa East 14.5 km/h 30.6 km/h 47 % 0 mm 680 W/m2
15:57 14.3 °C 3.4 °C 1026 hPa East 16.1 km/h 33.8 km/h 48 % 0 mm 675 W/m2
16:02 14.2 °C 4.2 °C 1026 hPa ENE 17.7 km/h 33.8 km/h 51 % 0 mm 661 W/m2
16:07 14.3 °C 4.3 °C 1026 hPa East 16.1 km/h 29 km/h 51 % 0 mm 624 W/m2
16:08 14.3 °C 4.3 °C 1026 hPa East 14.5 km/h 29 km/h 51 % 0 mm 624 W/m2
16:13 14 °C 3.4 °C 1026 hPa East 16.1 km/h 37 km/h 49 % 0 mm 601 W/m2
16:18 13.8 °C 3.6 °C 1026 hPa ENE 19.3 km/h 37 km/h 50 % 0 mm 633 W/m2
16:23 13.7 °C 3.4 °C 1026 hPa ENE 19.3 km/h 38.6 km/h 50 % 0 mm 619 W/m2
16:28 13.7 °C 3.4 °C 1026 hPa ENE 19.3 km/h 38.6 km/h 50 % 0 mm 608 W/m2
16:33 13.7 °C 3.4 °C 1026 hPa ENE 16.1 km/h 35.4 km/h 50 % 0 mm 591 W/m2
16:38 13.7 °C 3.4 °C 1026 hPa East 16.1 km/h 33.8 km/h 50 % 0 mm 564 W/m2
16:43 13.8 °C 3.6 °C 1026 hPa East 14.5 km/h 33.8 km/h 50 % 0 mm 564 W/m2
16:48 13.8 °C 3.3 °C 1026 hPa ENE 16.1 km/h 29 km/h 49 % 0 mm 545 W/m2
16:53 13.6 °C 3.4 °C 1026 hPa ENE 16.1 km/h 30.6 km/h 50 % 0 mm 538 W/m2
16:58 13.7 °C 3.4 °C 1026 hPa ENE 14.5 km/h 30.6 km/h 50 % 0 mm 522 W/m2
17:03 13.8 °C 3.3 °C 1026 hPa ENE 12.9 km/h 30.6 km/h 49 % 0 mm 515 W/m2
17:08 13.7 °C 3.4 °C 1026 hPa East 14.5 km/h 30.6 km/h 50 % 0 mm 503 W/m2
17:14 13.5 °C 2.4 °C 1026 hPa East 16.1 km/h 30.6 km/h 47 % 0 mm 494 W/m2
17:19 13.3 °C 2.2 °C 1026 hPa East 16.1 km/h 30.6 km/h 47 % 0 mm 475 W/m2
17:24 13.2 °C 2.7 °C 1026 hPa East 16.1 km/h 30.6 km/h 49 % 0 mm 485 W/m2
17:29 13.2 °C 3.3 °C 1026 hPa East 16.1 km/h 30.6 km/h 51 % 0 mm 478 W/m2
17:34 13.3 °C 3.4 °C 1026 hPa East 16.1 km/h 30.6 km/h 51 % 0 mm 483 W/m2
17:39 13.2 °C 3.3 °C 1026 hPa East 16.1 km/h 32.2 km/h 51 % 0 mm 476 W/m2
17:44 13.1 °C 3.7 °C 1026 hPa ENE 16.1 km/h 32.2 km/h 53 % 0 mm 403 W/m2
17:49 13.1 °C 3.7 °C 1026.3 hPa ENE 16.1 km/h 30.6 km/h 53 % 0 mm 366 W/m2
17:54 12.9 °C 3.6 °C 1026.3 hPa ENE 16.1 km/h 32.2 km/h 53 % 0 mm 341 W/m2
17:59 12.7 °C 3.9 °C 1026.3 hPa ENE 16.1 km/h 32.2 km/h 55 % 0 mm 274 W/m2
18:04 12.6 °C 3.8 °C 1026.3 hPa ENE 16.1 km/h 32.2 km/h 55 % 0 mm 267 W/m2
18:09 12.4 °C 4.1 °C 1026.3 hPa East 14.5 km/h 24.1 km/h 57 % 0 mm 220 W/m2
18:14 12.4 °C 4.6 °C 1026.3 hPa ENE 11.3 km/h 22.5 km/h 59 % 0 mm 199 W/m2
18:19 12.3 °C 4.8 °C 1026.6 hPa ENE 12.9 km/h 24.1 km/h 60 % 0 mm 163 W/m2
18:24 12.1 °C 5.1 °C 1026.6 hPa ENE 12.9 km/h 24.1 km/h 62 % 0 mm 216 W/m2
18:29 11.9 °C 4.8 °C 1026.6 hPa ENE 12.9 km/h 32.2 km/h 62 % 0 mm 176 W/m2
18:34 11.7 °C 4.9 °C 1026.6 hPa ENE 14.5 km/h 32.2 km/h 63 % 0 mm 139 W/m2
18:39 11.4 °C 4.8 °C 1026.6 hPa ENE 14.5 km/h 30.6 km/h 64 % 0 mm 130 W/m2
18:44 11.3 °C 4.9 °C 1027 hPa ENE 12.9 km/h 32.2 km/h 65 % 0 mm 181 W/m2
18:49 11.2 °C 5.1 °C 1027 hPa ENE 12.9 km/h 32.2 km/h 66 % 0 mm 223 W/m2
18:54 11.1 °C 5 °C 1027 hPa East 12.9 km/h 30.6 km/h 66 % 0 mm 102 W/m2
18:59 10.9 °C 5 °C 1027 hPa ENE 16.1 km/h 29 km/h 67 % 0 mm 206 W/m2
19:04 10.9 °C 5.2 °C 1027 hPa ENE 12.9 km/h 29 km/h 68 % 0 mm 132 W/m2
19:09 10.8 °C 5.1 °C 1027 hPa ENE 12.9 km/h 29 km/h 68 % 0 mm 47 W/m2
19:14 10.5 °C 5.1 °C 1027.3 hPa ENE 12.9 km/h 24.1 km/h 69 % 0 mm 35 W/m2
19:19 10.3 °C 5.1 °C 1027.3 hPa East 11.3 km/h 24.1 km/h 70 % 0 mm 37 W/m2
19:24 10 °C 5 °C 1027.3 hPa ENE 12.9 km/h 33.8 km/h 71 % 0 mm 37 W/m2
19:29 9.8 °C 5 °C 1027.3 hPa ENE 14.5 km/h 33.8 km/h 72 % 0 mm 26 W/m2
19:34 9.7 °C 5.1 °C 1027.3 hPa ENE 9.7 km/h 24.1 km/h 73 % 0 mm 25 W/m2
19:39 9.7 °C 5.1 °C 1027.3 hPa ENE 9.7 km/h 24.1 km/h 73 % 0 mm 19 W/m2
19:44 9.7 °C 5.1 °C 1027.3 hPa ENE 12.9 km/h 24.1 km/h 73 % 0 mm 16 W/m2
19:49 9.7 °C 5.1 °C 1027.3 hPa ENE 11.3 km/h 25.7 km/h 73 % 0 mm 14 W/m2
19:54 9.7 °C 5.1 °C 1027.3 hPa ENE 9.7 km/h 25.7 km/h 73 % 0 mm 14 W/m2
19:59 9.6 °C 5 °C 1027.3 hPa ENE 9.7 km/h 22.5 km/h 73 % 0 mm 18 W/m2
20:04 9.6 °C 5 °C 1027.3 hPa ENE 11.3 km/h 24.1 km/h 73 % 0 mm 19 W/m2
20:09 9.5 °C 4.9 °C 1027.7 hPa ENE 11.3 km/h 24.1 km/h 73 % 0 mm 19 W/m2
20:14 9.3 °C 4.7 °C 1027.7 hPa ENE 12.9 km/h 25.7 km/h 73 % 0 mm 18 W/m2
20:19 9.3 °C 4.7 °C 1027.7 hPa ENE 12.9 km/h 25.7 km/h 73 % 0 mm 18 W/m2
20:24 9.2 °C 4.8 °C 1027.7 hPa ENE 9.7 km/h 20.9 km/h 74 % 0 mm 14 W/m2
20:29 9.2 °C 4.8 °C 1027.7 hPa ENE 9.7 km/h 20.9 km/h 74 % 0 mm 11 W/m2
20:30 9.2 °C 4.8 °C 1027.7 hPa ENE 9.7 km/h 20.9 km/h 74 % 0 mm 11 W/m2
20:35 9.2 °C 4.8 °C 1027.7 hPa East 8 km/h 17.7 km/h 74 % 0 mm 7 W/m2
20:40 9.1 °C 4.9 °C 1027.7 hPa East 8 km/h 19.3 km/h 75 % 0 mm 5 W/m2
20:45 9.1 °C 4.9 °C 1028 hPa East 8 km/h 19.3 km/h 75 % 0 mm 0 W/m2
20:50 9 °C 4.8 °C 1028 hPa ENE 9.7 km/h 22.5 km/h 75 % 0 mm 0 W/m2
20:55 8.9 °C 4.7 °C 1028 hPa ENE 9.7 km/h 24.1 km/h 75 % 0 mm 0 W/m2
21:00 8.8 °C 4.8 °C 1028 hPa East 8 km/h 24.1 km/h 76 % 0 mm 0 W/m2
21:05 8.7 °C 4.7 °C 1028 hPa ENE 8 km/h 19.3 km/h 76 % 0 mm 0 W/m2
21:10 8.6 °C 4.6 °C 1028 hPa ENE 11.3 km/h 22.5 km/h 76 % 0 mm 0 W/m2
21:15 8.4 °C 4.6 °C 1028.3 hPa ENE 11.3 km/h 22.5 km/h 77 % 0 mm 0 W/m2
21:20 8.3 °C 4.5 °C 1028 hPa ENE 9.7 km/h 20.9 km/h 77 % 0 mm 0 W/m2
21:25 8.2 °C 4.6 °C 1028.3 hPa ENE 6.4 km/h 20.9 km/h 78 % 0 mm 0 W/m2
21:30 8.1 °C 4.5 °C 1028.3 hPa ENE 4.8 km/h 12.9 km/h 78 % 0 mm 0 W/m2
21:36 8 °C 4.4 °C 1028.3 hPa ENE 4.8 km/h 16.1 km/h 78 % 0 mm 0 W/m2
21:41 7.9 °C 4.5 °C 1028.3 hPa ENE 4.8 km/h 16.1 km/h 79 % 0 mm 0 W/m2
21:45 7.8 °C 4.4 °C 1028.3 hPa ENE 4.8 km/h 14.5 km/h 79 % 0 mm 0 W/m2
21:50 7.7 °C 4.4 °C 1028.3 hPa ENE 6.4 km/h 14.5 km/h 80 % 0 mm 0 W/m2
21:56 7.6 °C 4.4 °C 1028.3 hPa ENE 6.4 km/h 14.5 km/h 80 % 0 mm 0 W/m2
22:01 7.6 °C 4.4 °C 1028.3 hPa ENE 8 km/h 17.7 km/h 80 % 0 mm 0 W/m2
22:06 7.5 °C 4.4 °C 1028.3 hPa ENE 9.7 km/h 17.7 km/h 81 % 0 mm 0 W/m2
22:10 7.4 °C 4.3 °C 1028.3 hPa ENE 9.7 km/h 17.7 km/h 81 % 0 mm 0 W/m2
22:16 7.4 °C 4.3 °C 1028.3 hPa ENE 8 km/h 17.7 km/h 81 % 0 mm 0 W/m2
22:21 7.3 °C 4.4 °C 1028.3 hPa ENE 8 km/h 16.1 km/h 82 % 0 mm 0 W/m2
22:26 7.3 °C 4.4 °C 1028.3 hPa ENE 9.7 km/h 16.1 km/h 82 % 0 mm 0 W/m2
22:31 7.2 °C 4.3 °C 1028.3 hPa NE 9.7 km/h 17.7 km/h 82 % 0 mm 0 W/m2
22:36 7.2 °C 4.3 °C 1028.3 hPa NE 9.7 km/h 19.3 km/h 82 % 0 mm 0 W/m2
22:41 7.1 °C 4.2 °C 1028.3 hPa NE 9.7 km/h 20.9 km/h 82 % 0 mm 0 W/m2
22:46 7.1 °C 4.4 °C 1028.3 hPa NE 9.7 km/h 20.9 km/h 83 % 0 mm 0 W/m2
22:51 7 °C 4.3 °C 1028.3 hPa NE 11.3 km/h 19.3 km/h 83 % 0 mm 0 W/m2
22:56 6.9 °C 4.2 °C 1028.3 hPa NE 9.7 km/h 19.3 km/h 83 % 0 mm 0 W/m2
23:01 6.9 °C 4.4 °C 1028.3 hPa NE 8 km/h 20.9 km/h 84 % 0 mm 0 W/m2
23:06 6.8 °C 4.3 °C 1028.3 hPa NE 8 km/h 20.9 km/h 84 % 0 mm 0 W/m2
23:11 6.8 °C 4.4 °C 1028.3 hPa ENE 8 km/h 14.5 km/h 85 % 0 mm 0 W/m2
23:16 6.8 °C 4.4 °C 1028.7 hPa ENE 4.8 km/h 12.9 km/h 85 % 0 mm 0 W/m2
23:21 6.7 °C 4.3 °C 1028.7 hPa ENE 4.8 km/h 12.9 km/h 85 % 0 mm 0 W/m2
23:26 6.7 °C 4.3 °C 1028.7 hPa ENE 6.4 km/h 14.5 km/h 85 % 0 mm 0 W/m2
23:31 6.6 °C 4.4 °C 1028.7 hPa ENE 6.4 km/h 16.1 km/h 86 % 0 mm 0 W/m2
23:36 6.6 °C 4.4 °C 1028.7 hPa NE 4.8 km/h 16.1 km/h 86 % 0 mm 0 W/m2
23:41 6.5 °C 4.3 °C 1028.7 hPa NE 4.8 km/h 14.5 km/h 86 % 0 mm 0 W/m2
23:46 6.5 °C 4.5 °C 1028.7 hPa NE 6.4 km/h 14.5 km/h 87 % 0 mm 0 W/m2
23:51 6.4 °C 4.4 °C 1028.7 hPa NE 6.4 km/h 12.9 km/h 87 % 0 mm 0 W/m2
23:56 6.4 °C 4.6 °C 1028.7 hPa NE 6.4 km/h 12.9 km/h 88 % 0 mm 0 W/m2
Delerius-Weather
Compliments of Weather Underground - 2.25 mb

Data updates at regular intervals.